Santa Rita, Guam
Current Conditions -  °F | °C
As of 11:54 AM on Saturday 22 Nov 2014 (Local Time) from PGUM Reporting Station
Few Clouds Few Clouds  
Wind Chill: 89°   Ceiling: Unl
Heat Index: 102°   Visibility: 10mi
Dew Point: 77°   Wind: 15mph
Humidity: 67%   Direction: 80°E
Pressure: 29.87"   Gusts: 24mph
Location:  13.39°N, 144.67°E
Report Text: PGUM 220154Z 08013G21KT 10SM FEW021 32/25 A2987 RMK AO2 SLP107 T03170250
Loading
Personal Weather Stations






























Interactive Weather Map New forecast layout! Learn more

10-Day Weather Forecast

Advertisements
Track Severe Weather on mobile